sensor_id;sensor_type;location;lat;lon;timestamp;P1;durP1;ratioP1;P2;durP2;ratioP2
11691;SDS011;33659;42.672;23.354;2023-02-28T00:00:08;12.07;;;7.63;;
11691;SDS011;33659;42.672;23.354;2023-02-28T00:02:36;14.10;;;8.83;;
11691;SDS011;33659;42.672;23.354;2023-02-28T00:05:05;16.43;;;8.63;;
11691;SDS011;33659;42.672;23.354;2023-02-28T00:07:33;13.50;;;7.90;;
11691;SDS011;33659;42.672;23.354;2023-02-28T00:10:00;12.47;;;8.30;;
11691;SDS011;33659;42.672;23.354;2023-02-28T00:12:28;11.17;;;7.60;;
11691;SDS011;33659;42.672;23.354;2023-02-28T00:14:54;13.37;;;7.77;;
11691;SDS011;33659;42.672;23.354;2023-02-28T00:17:21;13.50;;;8.57;;
11691;SDS011;33659;42.672;23.354;2023-02-28T00:19:49;12.03;;;8.17;;
11691;SDS011;33659;42.672;23.354;2023-02-28T00:22:18;18.00;;;8.67;;
11691;SDS011;33659;42.672;23.354;2023-02-28T00:24:46;15.73;;;8.93;;
11691;SDS011;33659;42.672;23.354;2023-02-28T00:27:13;14.27;;;8.80;;
11691;SDS011;33659;42.672;23.354;2023-02-28T00:29:40;12.80;;;9.03;;
11691;SDS011;33659;42.672;23.354;2023-02-28T00:32:07;13.80;;;9.33;;
11691;SDS011;33659;42.672;23.354;2023-02-28T00:34:33;14.60;;;9.27;;
11691;SDS011;33659;42.672;23.354;2023-02-28T00:37:03;11.60;;;8.17;;
11691;SDS011;33659;42.672;23.354;2023-02-28T00:39:32;14.30;;;8.80;;
11691;SDS011;33659;42.672;23.354;2023-02-28T00:42:00;12.47;;;7.87;;
11691;SDS011;33659;42.672;23.354;2023-02-28T00:44:27;14.00;;;8.73;;
11691;SDS011;33659;42.672;23.354;2023-02-28T00:46:53;11.97;;;8.33;;
11691;SDS011;33659;42.672;23.354;2023-02-28T00:49:21;13.00;;;8.07;;
11691;SDS011;33659;42.672;23.354;2023-02-28T00:51:48;13.47;;;8.33;;
11691;SDS011;33659;42.672;23.354;2023-02-28T00:54:15;15.10;;;9.00;;
11691;SDS011;33659;42.672;23.354;2023-02-28T00:56:43;14.60;;;9.37;;
11691;SDS011;33659;42.672;23.354;2023-02-28T00:59:11;18.33;;;9.57;;
11691;SDS011;33659;42.672;23.354;2023-02-28T01:01:38;15.20;;;9.10;;
11691;SDS011;33659;42.672;23.354;2023-02-28T01:04:05;17.07;;;10.00;;
11691;SDS011;33659;42.672;23.354;2023-02-28T01:06:31;16.07;;;9.97;;
11691;SDS011;33659;42.672;23.354;2023-02-28T01:08:58;18.10;;;9.87;;
11691;SDS011;33659;42.672;23.354;2023-02-28T01:11:26;14.27;;;9.10;;
11691;SDS011;33659;42.672;23.354;2023-02-28T01:13:54;14.90;;;9.17;;
11691;SDS011;33659;42.672;23.354;2023-02-28T01:16:20;13.67;;;9.87;;
11691;SDS011;33659;42.672;23.354;2023-02-28T01:18:47;16.30;;;10.03;;
11691;SDS011;33659;42.672;23.354;2023-02-28T01:21:15;15.13;;;9.80;;
11691;SDS011;33659;42.672;23.354;2023-02-28T01:23:43;15.60;;;10.83;;
11691;SDS011;33659;42.672;23.354;2023-02-28T01:26:11;14.93;;;9.30;;
11691;SDS011;33659;42.672;23.354;2023-02-28T01:28:44;15.07;;;10.53;;
11691;SDS011;33659;42.672;23.354;2023-02-28T01:31:13;17.33;;;10.47;;
11691;SDS011;33659;42.672;23.354;2023-02-28T01:33:39;16.10;;;10.07;;
11691;SDS011;33659;42.672;23.354;2023-02-28T01:36:08;20.10;;;10.10;;
11691;SDS011;33659;42.672;23.354;2023-02-28T01:38:36;15.43;;;9.23;;
11691;SDS011;33659;42.672;23.354;2023-02-28T01:41:03;16.43;;;10.37;;
11691;SDS011;33659;42.672;23.354;2023-02-28T01:43:32;13.77;;;9.17;;
11691;SDS011;33659;42.672;23.354;2023-02-28T01:46:20;15.53;;;9.77;;
11691;SDS011;33659;42.672;23.354;2023-02-28T01:48:48;15.83;;;10.07;;
11691;SDS011;33659;42.672;23.354;2023-02-28T01:51:18;14.70;;;10.27;;
11691;SDS011;33659;42.672;23.354;2023-02-28T01:53:49;14.13;;;9.87;;
11691;SDS011;33659;42.672;23.354;2023-02-28T01:56:22;15.23;;;9.50;;
11691;SDS011;33659;42.672;23.354;2023-02-28T01:58:53;11.60;;;7.93;;
11691;SDS011;33659;42.672;23.354;2023-02-28T02:01:21;14.73;;;9.57;;
11691;SDS011;33659;42.672;23.354;2023-02-28T02:03:50;15.40;;;10.07;;
11691;SDS011;33659;42.672;23.354;2023-02-28T02:06:20;15.00;;;10.53;;
11691;SDS011;33659;42.672;23.354;2023-02-28T02:08:48;16.10;;;11.00;;
11691;SDS011;33659;42.672;23.354;2023-02-28T02:11:16;16.47;;;10.90;;
11691;SDS011;33659;42.672;23.354;2023-02-28T02:17:00;15.80;;;11.07;;
11691;SDS011;33659;42.672;23.354;2023-02-28T02:25:47;19.00;;;11.83;;
11691;SDS011;33659;42.672;23.354;2023-02-28T02:31:28;17.83;;;10.43;;
11691;SDS011;33659;42.672;23.354;2023-02-28T02:34:21;18.63;;;11.10;;
11691;SDS011;33659;42.672;23.354;2023-02-28T02:36:53;17.97;;;11.47;;
11691;SDS011;33659;42.672;23.354;2023-02-28T02:39:30;18.00;;;10.50;;
11691;SDS011;33659;42.672;23.354;2023-02-28T02:42:03;18.57;;;10.03;;
11691;SDS011;33659;42.672;23.354;2023-02-28T02:44:40;16.27;;;10.17;;
11691;SDS011;33659;42.672;23.354;2023-02-28T02:47:13;19.27;;;11.47;;
11691;SDS011;33659;42.672;23.354;2023-02-28T02:49:45;17.10;;;11.63;;
11691;SDS011;33659;42.672;23.354;2023-02-28T02:52:15;21.63;;;10.90;;
11691;SDS011;33659;42.672;23.354;2023-02-28T02:54:47;19.83;;;11.07;;
11691;SDS011;33659;42.672;23.354;2023-02-28T02:57:21;19.90;;;11.03;;
11691;SDS011;33659;42.672;23.354;2023-02-28T02:59:52;17.47;;;9.93;;
11691;SDS011;33659;42.672;23.354;2023-02-28T03:02:22;13.73;;;9.67;;
11691;SDS011;33659;42.672;23.354;2023-02-28T03:04:53;18.17;;;11.03;;
11691;SDS011;33659;42.672;23.354;2023-02-28T03:07:25;17.30;;;11.70;;
11691;SDS011;33659;42.672;23.354;2023-02-28T03:09:53;19.37;;;11.30;;
11691;SDS011;33659;42.672;23.354;2023-02-28T03:12:22;22.53;;;12.60;;
11691;SDS011;33659;42.672;23.354;2023-02-28T03:14:55;20.23;;;11.90;;
11691;SDS011;33659;42.672;23.354;2023-02-28T03:17:35;19.13;;;11.57;;
11691;SDS011;33659;42.672;23.354;2023-02-28T03:20:15;20.00;;;12.70;;
11691;SDS011;33659;42.672;23.354;2023-02-28T03:22:52;21.07;;;11.23;;
11691;SDS011;33659;42.672;23.354;2023-02-28T03:25:29;20.07;;;11.60;;
11691;SDS011;33659;42.672;23.354;2023-02-28T03:28:05;21.50;;;13.53;;
11691;SDS011;33659;42.672;23.354;2023-02-28T03:30:39;24.90;;;12.60;;
11691;SDS011;33659;42.672;23.354;2023-02-28T03:33:10;21.97;;;12.77;;
11691;SDS011;33659;42.672;23.354;2023-02-28T03:35:42;20.27;;;13.20;;
11691;SDS011;33659;42.672;23.354;2023-02-28T03:38:15;24.30;;;12.90;;
11691;SDS011;33659;42.672;23.354;2023-02-28T03:40:47;23.70;;;14.20;;
11691;SDS011;33659;42.672;23.354;2023-02-28T03:43:18;26.40;;;13.63;;
11691;SDS011;33659;42.672;23.354;2023-02-28T03:45:48;22.47;;;13.27;;
11691;SDS011;33659;42.672;23.354;2023-02-28T03:48:18;30.07;;;14.90;;
11691;SDS011;33659;42.672;23.354;2023-02-28T03:50:51;25.93;;;14.40;;
11691;SDS011;33659;42.672;23.354;2023-02-28T03:53:23;23.63;;;13.93;;
11691;SDS011;33659;42.672;23.354;2023-02-28T03:55:54;24.07;;;15.23;;
11691;SDS011;33659;42.672;23.354;2023-02-28T03:58:27;28.87;;;15.07;;
11691;SDS011;33659;42.672;23.354;2023-02-28T04:01:00;27.23;;;15.63;;
11691;SDS011;33659;42.672;23.354;2023-02-28T04:03:33;28.73;;;14.50;;
11691;SDS011;33659;42.672;23.354;2023-02-28T04:06:03;30.87;;;15.77;;
11691;SDS011;33659;42.672;23.354;2023-02-28T04:08:31;25.43;;;14.17;;
11691;SDS011;33659;42.672;23.354;2023-02-28T04:11:00;28.53;;;14.03;;
11691;SDS011;33659;42.672;23.354;2023-02-28T04:13:31;26.00;;;14.63;;
11691;SDS011;33659;42.672;23.354;2023-02-28T04:15:58;25.27;;;13.60;;
11691;SDS011;33659;42.672;23.354;2023-02-28T04:18:24;26.90;;;13.83;;
11691;SDS011;33659;42.672;23.354;2023-02-28T04:20:51;24.07;;;14.00;;
11691;SDS011;33659;42.672;23.354;2023-02-28T04:23:19;23.93;;;13.00;;
11691;SDS011;33659;42.672;23.354;2023-02-28T04:25:46;21.73;;;12.33;;
11691;SDS011;33659;42.672;23.354;2023-02-28T04:28:12;21.67;;;12.40;;
11691;SDS011;33659;42.672;23.354;2023-02-28T04:30:39;21.23;;;12.70;;
11691;SDS011;33659;42.672;23.354;2023-02-28T04:33:05;19.87;;;12.53;;
11691;SDS011;33659;42.672;23.354;2023-02-28T04:35:32;28.60;;;13.67;;
11691;SDS011;33659;42.672;23.354;2023-02-28T04:37:59;18.50;;;12.10;;
11691;SDS011;33659;42.672;23.354;2023-02-28T04:40:27;23.67;;;12.53;;
11691;SDS011;33659;42.672;23.354;2023-02-28T04:42:54;25.93;;;13.60;;
11691;SDS011;33659;42.672;23.354;2023-02-28T04:45:20;24.63;;;13.83;;
11691;SDS011;33659;42.672;23.354;2023-02-28T04:47:47;20.70;;;11.93;;
11691;SDS011;33659;42.672;23.354;2023-02-28T04:50:14;23.27;;;12.93;;
11691;SDS011;33659;42.672;23.354;2023-02-28T04:52:41;21.53;;;13.30;;
11691;SDS011;33659;42.672;23.354;2023-02-28T04:55:07;24.97;;;13.83;;
11691;SDS011;33659;42.672;23.354;2023-02-28T04:57:36;23.50;;;14.00;;
11691;SDS011;33659;42.672;23.354;2023-02-28T05:00:03;29.23;;;13.80;;
11691;SDS011;33659;42.672;23.354;2023-02-28T05:02:36;34.07;;;12.77;;
11691;SDS011;33659;42.672;23.354;2023-02-28T05:05:03;33.13;;;13.33;;
11691;SDS011;33659;42.672;23.354;2023-02-28T05:07:30;23.37;;;13.30;;
11691;SDS011;33659;42.672;23.354;2023-02-28T05:09:57;22.03;;;12.83;;
11691;SDS011;33659;42.672;23.354;2023-02-28T05:12:23;22.27;;;12.27;;
11691;SDS011;33659;42.672;23.354;2023-02-28T05:14:51;22.57;;;13.20;;
11691;SDS011;33659;42.672;23.354;2023-02-28T05:17:18;23.57;;;14.13;;
11691;SDS011;33659;42.672;23.354;2023-02-28T05:19:45;26.80;;;14.50;;
11691;SDS011;33659;42.672;23.354;2023-02-28T05:22:12;26.43;;;14.90;;
11691;SDS011;33659;42.672;23.354;2023-02-28T05:24:41;27.20;;;15.10;;
11691;SDS011;33659;42.672;23.354;2023-02-28T05:27:08;28.10;;;16.13;;
11691;SDS011;33659;42.672;23.354;2023-02-28T05:29:35;23.73;;;14.10;;
11691;SDS011;33659;42.672;23.354;2023-02-28T05:32:08;27.77;;;14.57;;
11691;SDS011;33659;42.672;23.354;2023-02-28T05:34:35;24.00;;;14.20;;
11691;SDS011;33659;42.672;23.354;2023-02-28T05:37:02;26.00;;;14.87;;
11691;SDS011;33659;42.672;23.354;2023-02-28T05:39:29;23.53;;;13.20;;
11691;SDS011;33659;42.672;23.354;2023-02-28T05:41:56;24.83;;;14.53;;
11691;SDS011;33659;42.672;23.354;2023-02-28T05:44:23;28.10;;;14.20;;
11691;SDS011;33659;42.672;23.354;2023-02-28T05:46:50;26.33;;;14.13;;
11691;SDS011;33659;42.672;23.354;2023-02-28T05:49:17;26.23;;;14.70;;
11691;SDS011;33659;42.672;23.354;2023-02-28T05:51:44;28.67;;;14.70;;
11691;SDS011;33659;42.672;23.354;2023-02-28T05:54:11;27.97;;;15.57;;
11691;SDS011;33659;42.672;23.354;2023-02-28T05:56:37;27.97;;;15.07;;
11691;SDS011;33659;42.672;23.354;2023-02-28T05:59:05;27.43;;;15.00;;
11691;SDS011;33659;42.672;23.354;2023-02-28T06:01:33;28.07;;;14.87;;
11691;SDS011;33659;42.672;23.354;2023-02-28T06:04:02;27.40;;;15.20;;
11691;SDS011;33659;42.672;23.354;2023-02-28T06:06:31;30.70;;;16.00;;
11691;SDS011;33659;42.672;23.354;2023-02-28T06:08:59;27.93;;;14.67;;
11691;SDS011;33659;42.672;23.354;2023-02-28T06:11:26;28.63;;;16.33;;
11691;SDS011;33659;42.672;23.354;2023-02-28T06:13:53;27.57;;;15.60;;
11691;SDS011;33659;42.672;23.354;2023-02-28T06:16:20;25.67;;;15.80;;
11691;SDS011;33659;42.672;23.354;2023-02-28T06:18:47;28.20;;;15.07;;
11691;SDS011;33659;42.672;23.354;2023-02-28T06:21:14;28.80;;;15.23;;
11691;SDS011;33659;42.672;23.354;2023-02-28T06:23:42;28.20;;;16.53;;
11691;SDS011;33659;42.672;23.354;2023-02-28T06:26:09;32.40;;;16.90;;
11691;SDS011;33659;42.672;23.354;2023-02-28T06:28:35;31.70;;;16.90;;
11691;SDS011;33659;42.672;23.354;2023-02-28T06:31:05;31.40;;;17.70;;
11691;SDS011;33659;42.672;23.354;2023-02-28T06:33:33;29.07;;;16.30;;
11691;SDS011;33659;42.672;23.354;2023-02-28T06:36:00;29.77;;;17.07;;
11691;SDS011;33659;42.672;23.354;2023-02-28T06:38:27;28.60;;;16.00;;
11691;SDS011;33659;42.672;23.354;2023-02-28T06:40:55;30.03;;;16.57;;
11691;SDS011;33659;42.672;23.354;2023-02-28T06:43:23;27.43;;;16.20;;
11691;SDS011;33659;42.672;23.354;2023-02-28T06:45:50;24.93;;;14.03;;
11691;SDS011;33659;42.672;23.354;2023-02-28T06:48:20;28.40;;;15.07;;
11691;SDS011;33659;42.672;23.354;2023-02-28T06:50:47;30.23;;;16.07;;
11691;SDS011;33659;42.672;23.354;2023-02-28T06:53:13;31.37;;;16.40;;
11691;SDS011;33659;42.672;23.354;2023-02-28T06:55:40;31.87;;;16.20;;
11691;SDS011;33659;42.672;23.354;2023-02-28T06:58:09;30.83;;;16.50;;
11691;SDS011;33659;42.672;23.354;2023-02-28T07:00:40;26.57;;;15.47;;
11691;SDS011;33659;42.672;23.354;2023-02-28T07:03:07;26.93;;;15.57;;
11691;SDS011;33659;42.672;23.354;2023-02-28T07:05:34;27.13;;;15.60;;
11691;SDS011;33659;42.672;23.354;2023-02-28T07:08:01;24.97;;;15.30;;
11691;SDS011;33659;42.672;23.354;2023-02-28T07:10:28;25.27;;;16.07;;
11691;SDS011;33659;42.672;23.354;2023-02-28T07:12:54;30.27;;;15.90;;
11691;SDS011;33659;42.672;23.354;2023-02-28T07:15:22;23.43;;;14.93;;
11691;SDS011;33659;42.672;23.354;2023-02-28T07:17:49;26.07;;;15.60;;
11691;SDS011;33659;42.672;23.354;2023-02-28T07:20:16;25.57;;;15.10;;
11691;SDS011;33659;42.672;23.354;2023-02-28T07:22:43;22.40;;;14.63;;
11691;SDS011;33659;42.672;23.354;2023-02-28T07:25:09;25.37;;;14.77;;
11691;SDS011;33659;42.672;23.354;2023-02-28T07:27:36;22.80;;;14.23;;
11691;SDS011;33659;42.672;23.354;2023-02-28T07:30:03;22.27;;;14.53;;
11691;SDS011;33659;42.672;23.354;2023-02-28T07:32:32;22.60;;;14.47;;
11691;SDS011;33659;42.672;23.354;2023-02-28T07:35:03;21.10;;;13.63;;
11691;SDS011;33659;42.672;23.354;2023-02-28T07:37:30;20.63;;;13.23;;
11691;SDS011;33659;42.672;23.354;2023-02-28T07:40:01;21.57;;;13.53;;
11691;SDS011;33659;42.672;23.354;2023-02-28T07:42:29;25.50;;;13.83;;
11691;SDS011;33659;42.672;23.354;2023-02-28T07:44:55;19.80;;;12.97;;
11691;SDS011;33659;42.672;23.354;2023-02-28T07:47:22;19.93;;;12.47;;
11691;SDS011;33659;42.672;23.354;2023-02-28T07:49:50;20.47;;;12.43;;
11691;SDS011;33659;42.672;23.354;2023-02-28T07:52:17;23.57;;;13.13;;
11691;SDS011;33659;42.672;23.354;2023-02-28T07:54:44;17.70;;;12.60;;
11691;SDS011;33659;42.672;23.354;2023-02-28T07:57:11;19.70;;;13.00;;
11691;SDS011;33659;42.672;23.354;2023-02-28T07:59:37;23.77;;;13.97;;
11691;SDS011;33659;42.672;23.354;2023-02-28T08:02:04;22.07;;;12.90;;
11691;SDS011;33659;42.672;23.354;2023-02-28T08:04:31;19.20;;;12.93;;
11691;SDS011;33659;42.672;23.354;2023-02-28T08:06:59;18.67;;;11.90;;
11691;SDS011;33659;42.672;23.354;2023-02-28T08:09:26;23.63;;;12.87;;
11691;SDS011;33659;42.672;23.354;2023-02-28T08:11:52;19.83;;;12.30;;
11691;SDS011;33659;42.672;23.354;2023-02-28T08:14:19;20.97;;;13.57;;
11691;SDS011;33659;42.672;23.354;2023-02-28T08:16:46;26.07;;;13.03;;
11691;SDS011;33659;42.672;23.354;2023-02-28T08:19:12;18.10;;;12.50;;
11691;SDS011;33659;42.672;23.354;2023-02-28T08:21:39;23.67;;;13.33;;
11691;SDS011;33659;42.672;23.354;2023-02-28T08:24:07;24.63;;;13.23;;
11691;SDS011;33659;42.672;23.354;2023-02-28T08:26:34;21.40;;;14.00;;
11691;SDS011;33659;42.672;23.354;2023-02-28T08:29:01;24.63;;;14.30;;
11691;SDS011;33659;42.672;23.354;2023-02-28T08:31:27;21.57;;;14.33;;
11691;SDS011;33659;42.672;23.354;2023-02-28T08:33:54;25.20;;;15.33;;
11691;SDS011;33659;42.672;23.354;2023-02-28T08:36:24;27.53;;;14.73;;
11691;SDS011;33659;42.672;23.354;2023-02-28T08:38:50;27.90;;;15.50;;
11691;SDS011;33659;42.672;23.354;2023-02-28T08:41:19;27.40;;;14.43;;
11691;SDS011;33659;42.672;23.354;2023-02-28T08:43:45;23.67;;;14.50;;
11691;SDS011;33659;42.672;23.354;2023-02-28T08:46:12;25.37;;;13.80;;
11691;SDS011;33659;42.672;23.354;2023-02-28T08:48:39;23.17;;;13.33;;
11691;SDS011;33659;42.672;23.354;2023-02-28T08:51:07;24.00;;;13.73;;
11691;SDS011;33659;42.672;23.354;2023-02-28T08:53:35;21.63;;;12.70;;
11691;SDS011;33659;42.672;23.354;2023-02-28T08:56:04;24.87;;;12.57;;
11691;SDS011;33659;42.672;23.354;2023-02-28T08:58:34;23.97;;;12.10;;
11691;SDS011;33659;42.672;23.354;2023-02-28T09:01:06;20.47;;;11.10;;
11691;SDS011;33659;42.672;23.354;2023-02-28T09:03:34;24.97;;;11.77;;
11691;SDS011;33659;42.672;23.354;2023-02-28T09:06:00;22.73;;;12.27;;
11691;SDS011;33659;42.672;23.354;2023-02-28T09:08:28;23.70;;;12.33;;
11691;SDS011;33659;42.672;23.354;2023-02-28T09:10:57;20.00;;;11.27;;
11691;SDS011;33659;42.672;23.354;2023-02-28T09:13:24;19.07;;;11.60;;
11691;SDS011;33659;42.672;23.354;2023-02-28T09:15:54;19.93;;;10.97;;
11691;SDS011;33659;42.672;23.354;2023-02-28T09:18:24;19.07;;;12.13;;
11691;SDS011;33659;42.672;23.354;2023-02-28T09:20:51;23.77;;;10.97;;
11691;SDS011;33659;42.672;23.354;2023-02-28T09:23:18;18.77;;;10.90;;
11691;SDS011;33659;42.672;23.354;2023-02-28T09:25:45;17.40;;;10.53;;
11691;SDS011;33659;42.672;23.354;2023-02-28T09:28:13;21.00;;;11.37;;
11691;SDS011;33659;42.672;23.354;2023-02-28T09:30:42;20.70;;;10.80;;
11691;SDS011;33659;42.672;23.354;2023-02-28T09:33:11;21.00;;;12.13;;
11691;SDS011;33659;42.672;23.354;2023-02-28T09:35:38;21.20;;;11.90;;
11691;SDS011;33659;42.672;23.354;2023-02-28T09:38:05;23.73;;;10.73;;
11691;SDS011;33659;42.672;23.354;2023-02-28T09:40:36;19.60;;;10.20;;
11691;SDS011;33659;42.672;23.354;2023-02-28T09:43:05;18.80;;;10.97;;
11691;SDS011;33659;42.672;23.354;2023-02-28T09:45:36;21.93;;;12.03;;
11691;SDS011;33659;42.672;23.354;2023-02-28T09:48:09;21.70;;;11.83;;
11691;SDS011;33659;42.672;23.354;2023-02-28T09:50:42;17.60;;;9.73;;
11691;SDS011;33659;42.672;23.354;2023-02-28T09:53:13;22.33;;;9.83;;
11691;SDS011;33659;42.672;23.354;2023-02-28T09:55:47;18.47;;;10.07;;
11691;SDS011;33659;42.672;23.354;2023-02-28T09:58:18;21.27;;;10.77;;
11691;SDS011;33659;42.672;23.354;2023-02-28T10:00:50;18.20;;;10.00;;
11691;SDS011;33659;42.672;23.354;2023-02-28T10:03:26;14.67;;;9.57;;
11691;SDS011;33659;42.672;23.354;2023-02-28T10:05:59;14.33;;;8.27;;
11691;SDS011;33659;42.672;23.354;2023-02-28T10:08:33;22.27;;;10.23;;
11691;SDS011;33659;42.672;23.354;2023-02-28T10:11:07;23.33;;;9.87;;
11691;SDS011;33659;42.672;23.354;2023-02-28T10:13:39;19.53;;;8.67;;
11691;SDS011;33659;42.672;23.354;2023-02-28T10:16:17;18.07;;;9.33;;
11691;SDS011;33659;42.672;23.354;2023-02-28T10:18:51;13.43;;;9.00;;
11691;SDS011;33659;42.672;23.354;2023-02-28T10:21:23;20.60;;;9.87;;
11691;SDS011;33659;42.672;23.354;2023-02-28T10:23:56;17.03;;;9.07;;
11691;SDS011;33659;42.672;23.354;2023-02-28T10:26:30;21.13;;;8.68;;
11691;SDS011;33659;42.672;23.354;2023-02-28T10:28:58;17.93;;;8.90;;
11691;SDS011;33659;42.672;23.354;2023-02-28T10:31:26;17.17;;;8.77;;
11691;SDS011;33659;42.672;23.354;2023-02-28T10:33:54;15.73;;;8.57;;
11691;SDS011;33659;42.672;23.354;2023-02-28T10:36:21;20.27;;;8.50;;
11691;SDS011;33659;42.672;23.354;2023-02-28T10:38:48;17.30;;;8.37;;
11691;SDS011;33659;42.672;23.354;2023-02-28T10:41:15;15.40;;;8.10;;
11691;SDS011;33659;42.672;23.354;2023-02-28T10:43:52;14.93;;;8.05;;
11691;SDS011;33659;42.672;23.354;2023-02-28T10:46:38;16.60;;;8.60;;
11691;SDS011;33659;42.672;23.354;2023-02-28T10:49:12;12.82;;;7.63;;
11691;SDS011;33659;42.672;23.354;2023-02-28T10:51:41;21.02;;;8.50;;
11691;SDS011;33659;42.672;23.354;2023-02-28T10:54:14;18.20;;;8.65;;
11691;SDS011;33659;42.672;23.354;2023-02-28T10:56:42;25.35;;;8.60;;
11691;SDS011;33659;42.672;23.354;2023-02-28T10:59:22;15.43;;;8.30;;
11691;SDS011;33659;42.672;23.354;2023-02-28T11:01:53;21.15;;;7.93;;
11691;SDS011;33659;42.672;23.354;2023-02-28T11:04:33;15.00;;;8.23;;
11691;SDS011;33659;42.672;23.354;2023-02-28T11:07:05;15.05;;;8.00;;
11691;SDS011;33659;42.672;23.354;2023-02-28T11:09:33;18.90;;;8.98;;
11691;SDS011;33659;42.672;23.354;2023-02-28T11:12:02;12.95;;;7.13;;
11691;SDS011;33659;42.672;23.354;2023-02-28T11:14:31;16.25;;;7.70;;
11691;SDS011;33659;42.672;23.354;2023-02-28T11:17:03;14.25;;;7.90;;
11691;SDS011;33659;42.672;23.354;2023-02-28T11:19:44;11.93;;;7.30;;
11691;SDS011;33659;42.672;23.354;2023-02-28T11:22:16;15.68;;;7.78;;
11691;SDS011;33659;42.672;23.354;2023-02-28T11:24:47;16.15;;;8.88;;
11691;SDS011;33659;42.672;23.354;2023-02-28T11:33:00;18.15;;;7.93;;
11691;SDS011;33659;42.672;23.354;2023-02-28T11:35:30;19.58;;;8.48;;
11691;SDS011;33659;42.672;23.354;2023-02-28T11:38:00;12.48;;;8.07;;
11691;SDS011;33659;42.672;23.354;2023-02-28T11:40:33;15.15;;;9.32;;
11691;SDS011;33659;42.672;23.354;2023-02-28T11:43:09;12.73;;;8.70;;
11691;SDS011;33659;42.672;23.354;2023-02-28T11:45:54;18.48;;;8.35;;
11691;SDS011;33659;42.672;23.354;2023-02-28T11:48:32;14.55;;;9.20;;
11691;SDS011;33659;42.672;23.354;2023-02-28T11:51:12;18.27;;;8.68;;
11691;SDS011;33659;42.672;23.354;2023-02-28T11:53:49;19.40;;;9.60;;
11691;SDS011;33659;42.672;23.354;2023-02-28T11:56:31;21.75;;;8.38;;
11691;SDS011;33659;42.672;23.354;2023-02-28T11:59:02;15.75;;;9.57;;
11691;SDS011;33659;42.672;23.354;2023-02-28T12:01:45;19.67;;;8.10;;
11691;SDS011;33659;42.672;23.354;2023-02-28T12:04:28;16.52;;;9.23;;
11691;SDS011;33659;42.672;23.354;2023-02-28T12:07:09;16.60;;;8.48;;
11691;SDS011;33659;42.672;23.354;2023-02-28T12:09:44;15.35;;;8.52;;
11691;SDS011;33659;42.672;23.354;2023-02-28T12:12:22;13.13;;;7.83;;
11691;SDS011;33659;42.672;23.354;2023-02-28T12:15:13;13.40;;;8.50;;
11691;SDS011;33659;42.672;23.354;2023-02-28T12:17:51;15.70;;;9.18;;
11691;SDS011;33659;42.672;23.354;2023-02-28T12:20:26;13.85;;;8.48;;
11691;SDS011;33659;42.672;23.354;2023-02-28T12:23:05;16.25;;;8.80;;
11691;SDS011;33659;42.672;23.354;2023-02-28T12:26:04;20.90;;;8.80;;
11691;SDS011;33659;42.672;23.354;2023-02-28T12:28:40;19.10;;;8.82;;
11691;SDS011;33659;42.672;23.354;2023-02-28T12:31:13;22.80;;;9.07;;
11691;SDS011;33659;42.672;23.354;2023-02-28T12:33:45;15.77;;;8.73;;
11691;SDS011;33659;42.672;23.354;2023-02-28T12:36:16;20.10;;;9.52;;
11691;SDS011;33659;42.672;23.354;2023-02-28T12:38:48;22.48;;;10.05;;
11691;SDS011;33659;42.672;23.354;2023-02-28T12:41:22;19.23;;;9.57;;
11691;SDS011;33659;42.672;23.354;2023-02-28T12:43:55;15.07;;;7.60;;
11691;SDS011;33659;42.672;23.354;2023-02-28T12:46:30;19.02;;;8.63;;
11691;SDS011;33659;42.672;23.354;2023-02-28T12:49:00;19.58;;;8.10;;
11691;SDS011;33659;42.672;23.354;2023-02-28T12:51:31;19.30;;;8.55;;
11691;SDS011;33659;42.672;23.354;2023-02-28T12:54:04;13.85;;;7.22;;
11691;SDS011;33659;42.672;23.354;2023-02-28T12:56:42;12.82;;;6.95;;
11691;SDS011;33659;42.672;23.354;2023-02-28T12:59:15;16.58;;;7.50;;
11691;SDS011;33659;42.672;23.354;2023-02-28T13:05:01;13.13;;;8.00;;
11691;SDS011;33659;42.672;23.354;2023-02-28T13:07:49;14.67;;;8.00;;
11691;SDS011;33659;42.672;23.354;2023-02-28T13:10:41;10.23;;;6.60;;
11691;SDS011;33659;42.672;23.354;2023-02-28T13:13:13;16.92;;;7.35;;
11691;SDS011;33659;42.672;23.354;2023-02-28T13:15:56;13.97;;;7.37;;
11691;SDS011;33659;42.672;23.354;2023-02-28T13:18:27;15.57;;;7.67;;
11691;SDS011;33659;42.672;23.354;2023-02-28T13:20:57;18.87;;;8.70;;
11691;SDS011;33659;42.672;23.354;2023-02-28T13:23:38;15.93;;;9.13;;
11691;SDS011;33659;42.672;23.354;2023-02-28T13:26:08;13.77;;;6.93;;
11691;SDS011;33659;42.672;23.354;2023-02-28T13:35:15;14.20;;;7.93;;
11691;SDS011;33659;42.672;23.354;2023-02-28T13:44:10;22.70;;;7.73;;
11691;SDS011;33659;42.672;23.354;2023-02-28T13:49:45;12.80;;;8.23;;
11691;SDS011;33659;42.672;23.354;2023-02-28T13:52:12;15.93;;;7.70;;
11691;SDS011;33659;42.672;23.354;2023-02-28T13:54:48;17.47;;;6.90;;
11691;SDS011;33659;42.672;23.354;2023-02-28T13:57:27;13.20;;;7.20;;
11691;SDS011;33659;42.672;23.354;2023-02-28T14:00:06;12.83;;;8.03;;
11691;SDS011;33659;42.672;23.354;2023-02-28T14:02:51;15.23;;;7.57;;
11691;SDS011;33659;42.672;23.354;2023-02-28T14:05:33;13.47;;;7.10;;
11691;SDS011;33659;42.672;23.354;2023-02-28T14:08:04;12.83;;;7.10;;
11691;SDS011;33659;42.672;23.354;2023-02-28T14:10:34;17.30;;;8.20;;
11691;SDS011;33659;42.672;23.354;2023-02-28T14:13:13;12.37;;;6.77;;
11691;SDS011;33659;42.672;23.354;2023-02-28T14:15:55;10.37;;;6.60;;
11691;SDS011;33659;42.672;23.354;2023-02-28T14:18:25;17.47;;;7.93;;
11691;SDS011;33659;42.672;23.354;2023-02-28T14:20:57;17.07;;;7.90;;
11691;SDS011;33659;42.672;23.354;2023-02-28T14:26:49;15.53;;;7.20;;
11691;SDS011;33659;42.672;23.354;2023-02-28T14:32:40;14.30;;;7.80;;
11691;SDS011;33659;42.672;23.354;2023-02-28T14:35:17;17.60;;;7.60;;
11691;SDS011;33659;42.672;23.354;2023-02-28T14:38:07;11.83;;;7.10;;
11691;SDS011;33659;42.672;23.354;2023-02-28T14:40:41;19.07;;;8.43;;
11691;SDS011;33659;42.672;23.354;2023-02-28T14:43:17;16.60;;;7.90;;
11691;SDS011;33659;42.672;23.354;2023-02-28T14:45:49;20.40;;;8.23;;
11691;SDS011;33659;42.672;23.354;2023-02-28T14:48:19;14.10;;;7.53;;
11691;SDS011;33659;42.672;23.354;2023-02-28T14:50:48;13.83;;;6.27;;
11691;SDS011;33659;42.672;23.354;2023-02-28T14:53:17;13.43;;;6.60;;
11691;SDS011;33659;42.672;23.354;2023-02-28T14:55:46;15.37;;;8.53;;
11691;SDS011;33659;42.672;23.354;2023-02-28T14:58:19;17.87;;;7.50;;
11691;SDS011;33659;42.672;23.354;2023-02-28T15:00:51;12.97;;;6.83;;
11691;SDS011;33659;42.672;23.354;2023-02-28T15:03:20;15.90;;;7.23;;
11691;SDS011;33659;42.672;23.354;2023-02-28T15:05:52;13.17;;;6.70;;
11691;SDS011;33659;42.672;23.354;2023-02-28T15:08:20;15.17;;;6.63;;
11691;SDS011;33659;42.672;23.354;2023-02-28T15:10:50;14.07;;;6.37;;
11691;SDS011;33659;42.672;23.354;2023-02-28T15:13:19;18.53;;;6.07;;
11691;SDS011;33659;42.672;23.354;2023-02-28T15:15:48;12.60;;;7.00;;